Time;durP1;ratioP1;P1;durP2;ratioP2;P2;SDS_P1;SDS_P2;PMS_P1;PMS_P2;Temp;Humidity;BMP_temperature;BMP_pressure;BME280_temperature;BME280_humidity;BME280_pressure;Samples;Min_cycle;Max_cycle;Signal;HPM_P1;HPM_P2
2023/01/06 00:01:34;;;;;;;12.70;2.00;;;;;;;10.24;100.00;100555.19;5015688;28;20037;-54
2023/01/06 00:04:00;;;;;;;4.28;1.45;;;;;;;10.19;100.00;100552.28;5014381;28;20513;-51
2023/01/06 00:06:27;;;;;;;1.38;0.95;;;;;;;10.18;100.00;100558.59;5014868;28;20040;-54
2023/01/06 00:08:56;;;;;;;5.40;0.30;;;;;;;10.18;100.00;100557.78;5019237;28;20391;-50
2023/01/06 00:11:23;;;;;;;5.68;0.52;;;;;;;10.22;100.00;100559.03;5018618;28;20044;-55
2023/01/06 00:13:48;;;;;;;2.95;0.10;;;;;;;10.29;100.00;100559.16;5016470;28;20548;-52
2023/01/06 00:16:17;;;;;;;3.85;0.15;;;;;;;10.33;100.00;100557.78;5016625;28;20071;-51
2023/01/06 00:18:43;;;;;;;3.65;0.30;;;;;;;10.29;100.00;100553.84;5015051;28;20025;-55
2023/01/06 00:21:09;;;;;;;4.93;0.75;;;;;;;10.18;100.00;100548.00;5016309;28;20135;-53
2023/01/06 00:23:35;;;;;;;2.35;0.45;;;;;;;10.08;100.00;100560.72;5019794;28;20448;-56
2023/01/06 00:26:03;;;;;;;5.10;1.23;;;;;;;10.04;100.00;100560.28;5020786;28;20135;-53
2023/01/06 00:28:28;;;;;;;2.65;0.40;;;;;;;10.08;100.00;100546.66;5014304;28;20050;-52
2023/01/06 00:30:54;;;;;;;2.20;0.08;;;;;;;10.07;100.00;100553.78;5020914;28;20108;-54
2023/01/06 00:33:19;;;;;;;0.73;0.45;;;;;;;10.11;100.00;100547.09;5019368;28;20552;-51
2023/01/06 00:35:44;;;;;;;4.15;0.32;;;;;;;10.14;100.00;100538.78;5022272;28;20021;-57
2023/01/06 00:38:10;;;;;;;2.83;0.00;;;;;;;10.14;100.00;100546.72;5018087;28;20037;-53
2023/01/06 00:40:36;;;;;;;4.93;0.10;;;;;;;10.17;100.00;100541.06;5012397;28;20034;-52
2023/01/06 00:43:02;;;;;;;2.45;0.35;;;;;;;10.23;100.00;100534.19;5019433;28;20041;-55
2023/01/06 00:45:27;;;;;;;1.20;0.20;;;;;;;10.26;100.00;100531.97;5027203;28;20029;-54
2023/01/06 00:47:52;;;;;;;0.98;0.10;;;;;;;10.30;100.00;100528.97;5019050;28;20044;-52
2023/01/06 00:50:19;;;;;;;3.35;0.00;;;;;;;10.31;100.00;100525.34;5015811;28;20044;-55
2023/01/06 00:52:47;;;;;;;0.10;0.00;;;;;;;10.27;100.00;100546.03;5018328;28;20426;-52
2023/01/06 00:55:12;;;;;;;2.38;0.82;;;;;;;10.25;100.00;100546.25;5014463;28;20105;-52
2023/01/06 00:57:38;;;;;;;0.40;0.00;;;;;;;10.20;100.00;100538.03;5020148;28;20132;-54
2023/01/06 01:00:04;;;;;;;4.18;0.85;;;;;;;10.21;100.00;100546.81;5014953;28;20104;-55
2023/01/06 01:02:30;;;;;;;0.73;0.08;;;;;;;10.20;100.00;100561.06;5016074;28;20064;-54
2023/01/06 01:04:55;;;;;;;0.40;0.22;;;;;;;10.33;100.00;100555.13;5016532;28;20057;-52
2023/01/06 01:07:20;;;;;;;0.47;0.35;;;;;;;10.33;100.00;100540.06;5017987;28;20112;-54
2023/01/06 01:09:45;;;;;;;0.15;0.00;;;;;;;10.22;100.00;100533.38;5017103;28;20025;-51
2023/01/06 01:12:11;;;;;;;0.85;0.00;;;;;;;10.14;100.00;100538.78;5017724;28;20036;-55
2023/01/06 01:14:48;;;;;;;0.40;0.00;;;;;;;10.10;100.00;100526.91;5013899;28;20564;-53
2023/01/06 01:17:25;;;;;;;1.95;0.10;;;;;;;10.07;100.00;100545.00;5023327;28;20045;-52
2023/01/06 01:19:54;;;;;;;0.32;0.17;;;;;;;9.96;100.00;100541.00;5020223;28;20510;-50
2023/01/06 01:22:20;;;;;;;0.35;0.00;;;;;;;9.99;100.00;100538.81;5018763;28;20045;-52
2023/01/06 01:24:45;;;;;;;3.03;0.10;;;;;;;9.91;100.00;100559.28;5020753;28;20032;-51
2023/01/06 01:27:12;;;;;;;2.03;0.15;;;;;;;9.85;100.00;100544.13;5015159;28;20084;-51
2023/01/06 01:29:37;;;;;;;0.55;0.40;;;;;;;9.76;100.00;100546.88;5030635;28;20521;-51
2023/01/06 01:32:03;;;;;;;1.70;0.20;;;;;;;9.79;100.00;100527.97;5028565;28;20065;-53
2023/01/06 01:34:28;;;;;;;0.75;0.00;;;;;;;9.82;100.00;100511.72;5018279;28;20021;-52
2023/01/06 01:36:55;;;;;;;0.30;0.00;;;;;;;9.66;100.00;100519.88;5022149;28;20072;-54
2023/01/06 01:39:26;;;;;;;0.20;0.20;;;;;;;9.55;100.00;100515.88;5023316;28;20109;-61
2023/01/06 01:41:53;;;;;;;1.45;0.00;;;;;;;9.37;100.00;100516.22;5037066;28;20117;-53
2023/01/06 01:44:46;;;;;;;0.73;0.13;;;;;;;9.25;100.00;100501.81;5036835;28;20033;-56
2023/01/06 01:47:15;;;;;;;0.00;0.00;;;;;;;9.19;100.00;100507.84;5023608;28;20475;-51
2023/01/06 01:49:44;;;;;;;0.25;0.00;;;;;;;9.12;100.00;100518.31;5026004;28;20387;-53
2023/01/06 01:52:11;;;;;;;2.38;0.95;;;;;;;9.05;100.00;100519.19;5034420;28;20406;-53
2023/01/06 01:54:38;;;;;;;0.20;0.00;;;;;;;9.06;100.00;100508.44;5027866;28;20041;-53
2023/01/06 01:57:08;;;;;;;6.22;0.00;;;;;;;9.00;100.00;100527.66;5030489;28;20502;-52
2023/01/06 01:59:36;;;;;;;0.00;0.00;;;;;;;8.99;100.00;100528.69;5037563;28;20073;-56
2023/01/06 02:02:01;;;;;;;0.00;0.00;;;;;;;8.85;100.00;100534.75;5039923;28;20504;-54
2023/01/06 02:04:28;;;;;;;0.85;0.00;;;;;;;8.70;100.00;100550.56;5019259;28;20022;-51
2023/01/06 02:06:54;;;;;;;3.90;0.70;;;;;;;8.63;100.00;100554.91;5026453;28;20106;-56
2023/01/06 02:09:32;;;;;;;0.00;0.00;;;;;;;8.54;100.00;100575.28;5030566;28;20475;-53
2023/01/06 02:11:58;;;;;;;1.75;0.80;;;;;;;8.48;100.00;100576.81;5020974;28;20034;-51
2023/01/06 02:14:25;;;;;;;0.90;0.10;;;;;;;8.49;100.00;100586.41;5034451;28;20036;-52
2023/01/06 02:17:16;;;;;;;0.15;0.00;;;;;;;8.52;100.00;100591.31;5027995;28;20033;-55
2023/01/06 02:20:11;;;;;;;1.38;0.00;;;;;;;8.44;100.00;100595.81;5030381;28;20167;-56
2023/01/06 02:22:55;;;;;;;1.70;0.10;;;;;;;8.33;100.00;100602.28;5025181;28;20475;-52
2023/01/06 02:25:21;;;;;;;0.20;0.15;;;;;;;8.22;100.00;100605.34;5030393;28;20076;-55
2023/01/06 02:28:04;;;;;;;0.00;0.00;;;;;;;8.19;100.00;100616.25;5029363;28;20557;-51
2023/01/06 02:30:45;;;;;;;0.40;0.00;;;;;;;8.21;100.00;100628.28;5026947;28;20045;-54
2023/01/06 02:33:29;;;;;;;0.00;0.00;;;;;;;8.07;100.00;100624.53;5027835;28;20366;-51
2023/01/06 02:36:04;;;;;;;0.25;0.05;;;;;;;7.83;100.00;100624.63;5026202;28;20025;-52
2023/01/06 02:38:44;;;;;;;0.00;0.00;;;;;;;7.74;100.00;100626.44;5028463;28;20025;-52
2023/01/06 02:41:26;;;;;;;0.45;0.10;;;;;;;7.63;100.00;100645.28;5025015;28;20033;-51
2023/01/06 02:44:07;;;;;;;0.38;0.10;;;;;;;7.58;100.00;100656.34;5027744;28;20091;-55
2023/01/06 02:46:53;;;;;;;0.00;0.00;;;;;;;7.52;100.00;100650.91;5031701;28;20079;-51
2023/01/06 02:49:28;;;;;;;1.25;0.63;;;;;;;7.37;100.00;100641.03;5023954;28;20496;-52
2023/01/06 02:52:19;;;;;;;0.10;0.00;;;;;;;7.21;100.00;100655.03;5030609;28;20484;-52
2023/01/06 02:55:10;;;;;;;0.00;0.00;;;;;;;7.33;100.00;100670.53;5027675;28;20038;-51
2023/01/06 02:57:48;;;;;;;0.00;0.00;;;;;;;7.25;100.00;100663.44;5017920;28;20049;-50
2023/01/06 03:00:44;;;;;;;0.20;0.00;;;;;;;7.20;100.00;100663.97;5021377;28;20099;-49
2023/01/06 03:03:13;;;;;;;0.10;0.00;;;;;;;7.19;100.00;100667.56;5027328;28;20119;-52
2023/01/06 03:05:42;;;;;;;1.10;0.00;;;;;;;7.15;100.00;100660.13;5026636;28;20475;-51
2023/01/06 03:08:13;;;;;;;1.55;0.00;;;;;;;7.03;100.00;100661.47;5030530;28;20087;-51
2023/01/06 03:10:43;;;;;;;1.55;0.10;;;;;;;6.98;100.00;100659.31;5032040;28;20040;-51
2023/01/06 03:13:16;;;;;;;1.10;0.00;;;;;;;6.97;100.00;100662.94;5027733;28;20115;-53
2023/01/06 03:15:41;;;;;;;0.40;0.10;;;;;;;6.87;100.00;100664.91;5028041;28;20041;-51
2023/01/06 03:18:07;;;;;;;3.85;0.10;;;;;;;6.72;100.00;100673.44;5029070;28;20080;-52
2023/01/06 03:20:33;;;;;;;0.00;0.00;;;;;;;6.59;100.00;100675.72;5029922;28;20438;-53
2023/01/06 03:22:58;;;;;;;2.42;0.93;;;;;;;6.63;100.00;100682.28;5025987;28;20076;-50
2023/01/06 03:25:23;;;;;;;0.52;0.00;;;;;;;6.65;100.00;100682.97;5025070;28;20034;-54
2023/01/06 03:27:49;;;;;;;0.38;0.00;;;;;;;6.62;100.00;100675.38;5029249;28;20028;-50
2023/01/06 03:30:15;;;;;;;0.38;0.38;;;;;;;6.59;100.00;100691.53;5023075;28;20494;-52
2023/01/06 03:33:00;;;;;;;0.10;0.10;;;;;;;6.46;100.00;100685.88;5027226;28;20030;-54
2023/01/06 03:35:49;;;;;;;1.42;0.00;;;;;;;6.34;100.00;100690.59;5018244;28;20065;-52
2023/01/06 03:38:24;;;;;;;3.00;1.08;;;;;;;6.29;100.00;100698.97;5035112;28;20095;-56
2023/01/06 03:40:59;;;;;;;0.85;0.00;;;;;;;6.42;100.00;100695.06;5025309;28;20489;-51
2023/01/06 03:43:39;;;;;;;0.28;0.00;;;;;;;6.42;100.00;100697.69;5023922;28;20088;-54
2023/01/06 03:46:20;;;;;;;2.63;1.55;;;;;;;6.36;100.00;100690.44;5025609;28;20037;-53
2023/01/06 03:48:55;;;;;;;3.03;0.00;;;;;;;6.28;100.00;100692.06;5020211;28;20069;-53
2023/01/06 03:52:09;;;;;;;3.35;0.20;;;;;;;6.15;100.00;100691.66;5020505;28;20084;-53
2023/01/06 03:54:43;;;;;;;0.00;0.00;;;;;;;6.21;100.00;100691.03;5035497;28;20069;-52
2023/01/06 03:57:19;;;;;;;0.75;0.00;;;;;;;6.23;100.00;100691.69;5022428;28;20033;-51
2023/01/06 04:00:11;;;;;;;0.55;0.00;;;;;;;6.31;100.00;100707.53;5021744;28;20044;-51
2023/01/06 04:02:39;;;;;;;4.88;0.10;;;;;;;6.36;100.00;100707.06;5018895;28;20037;-55
2023/01/06 04:05:14;;;;;;;1.52;0.30;;;;;;;6.36;100.00;100720.22;5020376;28;20033;-50
2023/01/06 04:07:41;;;;;;;0.93;0.20;;;;;;;6.38;100.00;100717.47;5042308;28;20128;-50
2023/01/06 04:10:07;;;;;;;6.03;0.10;;;;;;;6.36;100.00;100716.78;5020110;28;20033;-53
2023/01/06 04:12:38;;;;;;;0.38;0.00;;;;;;;6.25;100.00;100721.34;5024672;28;20053;-53
2023/01/06 04:15:09;;;;;;;1.85;1.08;;;;;;;6.42;100.00;100726.69;5021670;28;20028;-51
2023/01/06 04:17:36;;;;;;;2.60;0.75;;;;;;;6.61;100.00;100713.28;5029053;28;20042;-53
2023/01/06 04:20:02;;;;;;;5.70;0.00;;;;;;;6.65;100.00;100722.47;5020453;28;20083;-54
2023/01/06 04:22:27;;;;;;;0.20;0.10;;;;;;;6.62;100.00;100714.09;5027165;28;20025;-51
2023/01/06 04:24:53;;;;;;;3.95;0.57;;;;;;;6.67;100.00;100711.78;5021338;28;20537;-54
2023/01/06 04:27:18;;;;;;;2.70;0.20;;;;;;;6.67;100.00;100709.16;5024568;28;20554;-53
2023/01/06 04:29:43;;;;;;;0.90;0.55;;;;;;;6.70;100.00;100714.94;5022962;28;20033;-50
2023/01/06 04:32:09;;;;;;;5.88;0.10;;;;;;;6.62;100.00;100712.28;5023673;28;20025;-53
2023/01/06 04:34:34;;;;;;;1.88;1.35;;;;;;;6.55;100.00;100704.16;5031173;28;20372;-54
2023/01/06 04:36:59;;;;;;;0.30;0.00;;;;;;;6.37;100.00;100705.25;5016345;28;20442;-54
2023/01/06 04:39:25;;;;;;;2.50;0.13;;;;;;;6.33;100.00;100702.94;5021069;28;20030;-51
2023/01/06 04:41:50;;;;;;;0.45;0.00;;;;;;;6.11;100.00;100704.28;5028598;28;20047;-50
2023/01/06 04:44:15;;;;;;;4.07;0.60;;;;;;;5.93;100.00;100718.47;5025227;28;20029;-51
2023/01/06 04:46:41;;;;;;;2.03;0.00;;;;;;;5.85;100.00;100724.50;5023072;28;20021;-54
2023/01/06 04:49:06;;;;;;;6.20;0.35;;;;;;;5.79;100.00;100736.47;5014524;28;20026;-50
2023/01/06 04:51:32;;;;;;;6.38;0.32;;;;;;;5.61;100.00;100733.06;5019370;28;20071;-54
2023/01/06 04:53:57;;;;;;;2.63;1.20;;;;;;;5.65;100.00;100739.66;5022152;28;20037;-52
2023/01/06 04:56:22;;;;;;;1.65;0.00;;;;;;;5.61;100.00;100743.59;5017641;28;20049;-53
2023/01/06 04:58:48;;;;;;;1.02;0.00;;;;;;;5.56;100.00;100753.72;5025065;28;20028;-53
2023/01/06 05:01:13;;;;;;;3.40;1.58;;;;;;;5.43;100.00;100757.56;5022284;28;20025;-53
2023/01/06 05:03:40;;;;;;;1.50;0.00;;;;;;;5.44;100.00;100761.84;5020042;28;20514;-51
2023/01/06 05:06:08;;;;;;;4.63;0.17;;;;;;;5.61;100.00;100760.19;5018181;28;20116;-54
2023/01/06 05:08:35;;;;;;;0.88;0.10;;;;;;;5.59;100.00;100771.84;5017915;28;20033;-53
2023/01/06 05:11:03;;;;;;;1.10;0.03;;;;;;;5.55;100.00;100776.59;5020994;28;20029;-53
2023/01/06 05:13:30;;;;;;;1.00;0.03;;;;;;;5.58;100.00;100780.72;5023424;28;20029;-53
2023/01/06 05:15:56;;;;;;;3.53;0.00;;;;;;;5.51;100.00;100774.41;5018043;28;20029;-52
2023/01/06 05:18:21;;;;;;;0.43;0.10;;;;;;;5.38;100.00;100788.75;5023153;28;20033;-51
2023/01/06 05:20:53;;;;;;;0.85;0.10;;;;;;;5.51;100.00;100784.94;5020258;28;20105;-52
2023/01/06 05:23:19;;;;;;;0.70;0.00;;;;;;;5.73;100.00;100784.47;5015792;28;20098;-52
2023/01/06 05:25:45;;;;;;;3.97;0.15;;;;;;;5.69;100.00;100791.81;5025731;28;20526;-54
2023/01/06 05:28:10;;;;;;;1.90;1.08;;;;;;;5.58;100.00;100778.91;5018930;28;20061;-51
2023/01/06 05:30:36;;;;;;;3.53;0.38;;;;;;;5.42;100.00;100776.97;5022692;28;20337;-50
2023/01/06 05:33:02;;;;;;;4.40;1.30;;;;;;;5.41;100.00;100783.19;5018316;28;20105;-53
2023/01/06 05:35:27;;;;;;;1.45;0.00;;;;;;;5.39;100.00;100774.59;5015856;28;20487;-52
2023/01/06 05:37:53;;;;;;;2.05;0.00;;;;;;;5.23;100.00;100774.47;5017828;28;20445;-51
2023/01/06 05:40:19;;;;;;;1.38;0.03;;;;;;;5.05;100.00;100778.88;5021915;28;20033;-50
2023/01/06 05:42:44;;;;;;;0.55;0.10;;;;;;;4.96;100.00;100781.41;5018859;28;20403;-54
2023/01/06 05:45:10;;;;;;;0.30;0.00;;;;;;;4.91;100.00;100777.56;5018267;28;20021;-53
2023/01/06 05:47:35;;;;;;;3.13;0.08;;;;;;;4.84;100.00;100774.69;5011531;28;20030;-52
2023/01/06 05:50:01;;;;;;;1.55;0.00;;;;;;;4.79;100.00;100769.88;5018031;28;20053;-55
2023/01/06 05:52:26;;;;;;;1.45;0.10;;;;;;;4.73;100.00;100774.91;5016285;28;20077;-53
2023/01/06 05:54:51;;;;;;;3.45;0.25;;;;;;;4.82;100.00;100776.63;5017835;28;20040;-54
2023/01/06 05:57:17;;;;;;;9.32;0.20;;;;;;;4.81;100.00;100775.00;5010248;28;20033;-52
2023/01/06 05:59:42;;;;;;;4.38;0.20;;;;;;;4.78;100.00;100770.03;5008274;28;20665;-55
2023/01/06 06:02:08;;;;;;;1.98;0.20;;;;;;;4.69;100.00;100771.72;5012236;28;20069;-52
2023/01/06 06:04:34;;;;;;;3.03;0.30;;;;;;;4.53;100.00;100769.72;5011153;28;20216;-51
2023/01/06 06:06:59;;;;;;;2.30;0.20;;;;;;;4.44;100.00;100770.59;5020389;28;20075;-54
2023/01/06 06:09:24;;;;;;;2.53;0.00;;;;;;;4.45;100.00;100768.78;5021407;28;20117;-53
2023/01/06 06:11:53;;;;;;;0.68;0.47;;;;;;;4.47;100.00;100780.00;5033447;28;20154;-51
2023/01/06 06:14:18;;;;;;;0.03;0.00;;;;;;;4.48;100.00;100786.88;5027309;28;20082;-53
2023/01/06 06:16:43;;;;;;;0.55;0.10;;;;;;;4.50;100.00;100793.66;5025640;28;20038;-52
2023/01/06 06:19:11;;;;;;;7.30;1.60;;;;;;;4.55;100.00;100809.81;5022012;28;20032;-52
2023/01/06 06:21:37;;;;;;;0.73;0.00;;;;;;;4.56;100.00;100798.31;5030611;28;20502;-52
2023/01/06 06:24:02;;;;;;;1.13;0.68;;;;;;;4.65;100.00;100801.06;5039068;28;20038;-54
2023/01/06 06:26:28;;;;;;;2.63;0.00;;;;;;;4.59;100.00;100815.59;5032544;28;20376;-53
2023/01/06 06:28:53;;;;;;;0.00;0.00;;;;;;;4.49;100.00;100820.03;5026727;28;20028;-54
2023/01/06 06:31:22;;;;;;;0.38;0.10;;;;;;;4.38;100.00;100821.03;5031601;28;20026;-56
2023/01/06 06:33:51;;;;;;;3.20;0.38;;;;;;;4.32;100.00;100819.81;5034369;28;20025;-53
2023/01/06 06:36:17;;;;;;;1.25;0.10;;;;;;;4.26;100.00;100824.78;5040515;28;20120;-53
2023/01/06 06:38:44;;;;;;;1.90;0.00;;;;;;;4.27;100.00;100819.41;5022002;28;20100;-50
2023/01/06 06:41:09;;;;;;;0.38;0.00;;;;;;;4.27;100.00;100829.09;5029591;28;20172;-50
2023/01/06 06:43:35;;;;;;;2.78;0.10;;;;;;;4.37;100.00;100833.34;5035411;28;20430;-50
2023/01/06 06:46:01;;;;;;;9.65;1.08;;;;;;;4.38;100.00;100836.78;5030559;28;20368;-50
2023/01/06 06:48:29;;;;;;;0.10;0.10;;;;;;;4.37;100.00;100843.03;5033794;28;20038;-51
2023/01/06 06:50:57;;;;;;;0.00;0.00;;;;;;;4.34;100.00;100843.31;5035385;28;20040;-53
2023/01/06 06:53:23;;;;;;;0.65;0.00;;;;;;;4.26;100.00;100851.91;5032834;28;20139;-50
2023/01/06 06:55:48;;;;;;;2.65;0.00;;;;;;;4.16;100.00;100858.97;5032492;28;20050;-51
2023/01/06 06:58:13;;;;;;;2.63;0.00;;;;;;;4.15;100.00;100865.97;5017273;28;20454;-54
2023/01/06 07:00:39;;;;;;;0.30;0.00;;;;;;;4.14;100.00;100861.72;5025732;28;20018;-53
2023/01/06 07:03:04;;;;;;;0.43;0.00;;;;;;;4.18;100.00;100862.25;5026715;28;20112;-56
2023/01/06 07:05:30;;;;;;;1.77;0.10;;;;;;;4.22;100.00;100863.63;5022302;28;20113;-51
2023/01/06 07:07:55;;;;;;;2.17;0.00;;;;;;;4.19;100.00;100856.03;5014973;28;20443;-56
2023/01/06 07:10:20;;;;;;;1.88;0.00;;;;;;;4.22;100.00;100865.44;5023859;28;20025;-55
2023/01/06 07:12:46;;;;;;;0.17;0.10;;;;;;;4.27;100.00;100869.28;5023462;28;20013;-51
2023/01/06 07:15:11;;;;;;;0.98;0.00;;;;;;;4.22;100.00;100868.06;5020671;28;20084;-54
2023/01/06 07:17:38;;;;;;;0.55;0.05;;;;;;;4.11;100.00;100875.13;5020888;28;20030;-50
2023/01/06 07:20:04;;;;;;;0.10;0.10;;;;;;;4.02;100.00;100869.88;5025353;28;20021;-55
2023/01/06 07:22:29;;;;;;;1.02;0.00;;;;;;;3.93;100.00;100874.97;5020150;28;20455;-53
2023/01/06 07:24:55;;;;;;;1.08;0.30;;;;;;;3.93;100.00;100882.03;5021616;28;20128;-51
2023/01/06 07:27:20;;;;;;;0.30;0.00;;;;;;;3.92;100.00;100880.34;5019568;28;20065;-52
2023/01/06 07:29:45;;;;;;;0.65;0.17;;;;;;;3.85;100.00;100892.38;5031152;28;20107;-54
2023/01/06 07:32:11;;;;;;;1.35;0.10;;;;;;;3.83;100.00;100886.44;5021422;28;20053;-53
2023/01/06 07:34:36;;;;;;;2.53;0.00;;;;;;;3.85;100.00;100895.00;5019561;28;20108;-53
2023/01/06 07:37:01;;;;;;;0.80;0.22;;;;;;;3.92;100.00;100898.72;5020696;28;20072;-51
2023/01/06 07:39:27;;;;;;;0.10;0.10;;;;;;;3.90;100.00;100903.28;5018969;28;20053;-51
2023/01/06 07:41:52;;;;;;;3.85;0.38;;;;;;;3.83;100.00;100892.50;5026288;28;20036;-53
2023/01/06 07:44:17;;;;;;;0.00;0.00;;;;;;;3.77;100.00;100903.56;5020757;28;20029;-53
2023/01/06 07:46:43;;;;;;;1.67;0.00;;;;;;;3.82;100.00;100900.50;5019189;28;20034;-54
2023/01/06 07:49:08;;;;;;;0.15;0.00;;;;;;;3.89;100.00;100896.38;5018752;28;20101;-52
2023/01/06 07:51:33;;;;;;;0.15;0.00;;;;;;;3.96;100.00;100897.50;5012195;28;20049;-51
2023/01/06 07:54:00;;;;;;;0.75;0.10;;;;;;;3.96;100.00;100899.28;5010159;28;20034;-50
2023/01/06 07:56:25;;;;;;;0.00;0.00;;;;;;;3.99;100.00;100896.38;5013618;28;20041;-56
2023/01/06 07:58:50;;;;;;;1.10;0.00;;;;;;;4.01;100.00;100894.47;5013758;28;20036;-49
2023/01/06 08:01:16;;;;;;;2.75;0.32;;;;;;;4.00;100.00;100892.78;5012229;28;20064;-56
2023/01/06 08:03:41;;;;;;;0.32;0.10;;;;;;;4.05;100.00;100898.44;5014451;28;20127;-51
2023/01/06 08:06:08;;;;;;;0.00;0.00;;;;;;;4.07;100.00;100899.97;5024199;28;20042;-50
2023/01/06 08:08:38;;;;;;;1.30;0.10;;;;;;;4.06;100.00;100898.31;5014141;28;20447;-51
2023/01/06 08:11:05;;;;;;;2.90;0.00;;;;;;;4.06;100.00;100897.50;5013096;28;20029;-53
2023/01/06 08:13:31;;;;;;;0.08;0.00;;;;;;;4.06;100.00;100897.50;5011393;28;20101;-52
2023/01/06 08:15:56;;;;;;;0.10;0.10;;;;;;;4.03;100.00;100892.53;5014833;28;20152;-51
2023/01/06 08:18:21;;;;;;;0.80;0.00;;;;;;;4.10;100.00;100893.59;5015179;28;20513;-53
2023/01/06 08:20:47;;;;;;;1.17;0.10;;;;;;;4.14;100.00;100903.69;5019184;28;20459;-52
2023/01/06 08:23:12;;;;;;;0.00;0.00;;;;;;;4.13;100.00;100907.31;5015659;28;20017;-53
2023/01/06 08:25:37;;;;;;;0.90;0.00;;;;;;;4.21;100.00;100905.75;5029660;28;20045;-51
2023/01/06 08:28:03;;;;;;;1.00;0.00;;;;;;;4.14;100.00;100911.56;5020595;28;20040;-53
2023/01/06 08:30:29;;;;;;;2.00;0.03;;;;;;;4.16;100.00;100916.69;5023486;28;20029;-55
2023/01/06 08:33:00;;;;;;;0.00;0.00;;;;;;;4.15;100.00;100921.09;5025590;28;20411;-52
2023/01/06 08:35:26;;;;;;;0.70;0.00;;;;;;;4.17;100.00;100920.16;5009436;28;20798;-53
2023/01/06 08:37:51;;;;;;;1.38;0.00;;;;;;;4.15;100.00;100918.47;5010341;28;20037;-50
2023/01/06 08:40:18;;;;;;;0.38;0.38;;;;;;;4.10;100.00;100930.34;5011828;28;20100;-57
2023/01/06 08:42:43;;;;;;;1.40;0.17;;;;;;;4.09;100.00;100923.47;5022982;28;20040;-56
2023/01/06 08:45:08;;;;;;;1.85;0.00;;;;;;;3.80;100.00;100915.56;5025010;28;20034;-53
2023/01/06 08:47:34;;;;;;;1.55;0.20;;;;;;;3.63;100.00;100907.38;5030292;28;20035;-53
2023/01/06 08:49:59;;;;;;;0.30;0.00;;;;;;;3.47;100.00;100915.78;5025977;28;20024;-52
2023/01/06 08:52:26;;;;;;;1.70;0.10;;;;;;;3.31;100.00;100912.84;5028433;28;20068;-54
2023/01/06 08:54:51;;;;;;;1.83;0.40;;;;;;;3.24;100.00;100902.03;5023110;28;20037;-54
2023/01/06 08:57:16;;;;;;;6.55;0.40;;;;;;;3.22;100.00;100903.97;5031142;28;20033;-52
2023/01/06 08:59:42;;;;;;;2.10;0.30;;;;;;;3.12;100.00;100918.81;5026027;28;20040;-51
2023/01/06 09:02:11;;;;;;;3.13;0.65;;;;;;;3.17;100.00;100914.00;5020397;28;20033;-52
2023/01/06 09:04:37;;;;;;;3.00;0.82;;;;;;;3.20;100.00;100915.53;5027684;28;20043;-52
2023/01/06 09:07:02;;;;;;;2.10;0.17;;;;;;;3.19;100.00;100919.97;5026589;28;20037;-51
2023/01/06 09:09:28;;;;;;;2.42;0.45;;;;;;;3.32;100.00;100918.91;5019631;28;20410;-56
2023/01/06 09:11:53;;;;;;;0.75;0.00;;;;;;;3.64;100.00;100930.03;5026929;28;21122;-52
2023/01/06 09:14:19;;;;;;;2.53;0.32;;;;;;;3.93;100.00;100924.84;5035357;28;20014;-53
2023/01/06 09:16:46;;;;;;;0.00;0.00;;;;;;;4.11;100.00;100934.66;5027646;28;20040;-52
2023/01/06 09:19:11;;;;;;;3.30;0.20;;;;;;;4.22;100.00;100934.50;5021412;28;20236;-51
2023/01/06 09:21:37;;;;;;;1.15;0.00;;;;;;;4.36;100.00;100938.50;5019289;28;20030;-52
2023/01/06 09:24:03;;;;;;;3.95;1.52;;;;;;;4.41;100.00;100951.22;5026110;28;20032;-53
2023/01/06 09:26:28;;;;;;;4.47;0.00;;;;;;;4.45;100.00;100955.22;5018908;28;20040;-55
2023/01/06 09:28:54;;;;;;;0.82;0.05;;;;;;;4.63;100.00;100956.16;5021386;28;20104;-52
2023/01/06 09:31:19;;;;;;;0.30;0.00;;;;;;;4.80;100.00;100960.72;5024492;28;20049;-55
2023/01/06 09:33:44;;;;;;;3.65;0.00;;;;;;;5.01;100.00;100957.06;5023600;28;20064;-52
2023/01/06 09:36:10;;;;;;;1.33;0.70;;;;;;;5.12;100.00;100951.63;5022364;28;20030;-53
2023/01/06 09:38:35;;;;;;;2.80;0.22;;;;;;;5.22;100.00;100949.78;5023062;28;20053;-54
2023/01/06 09:41:18;;;;;;;1.13;0.00;;;;;;;5.34;100.00;100941.69;5027277;28;20481;-52
2023/01/06 09:43:49;;;;;;;0.10;0.00;;;;;;;5.40;100.00;100957.72;5023902;28;20037;-56
2023/01/06 09:46:19;;;;;;;0.43;0.00;;;;;;;5.43;100.00;100960.06;5025959;28;20046;-53
2023/01/06 09:49:14;;;;;;;0.32;0.10;;;;;;;5.57;100.00;100960.56;5031628;28;20029;-53
2023/01/06 09:51:40;;;;;;;2.63;0.00;;;;;;;5.67;100.00;100963.97;5029513;28;21289;-56
2023/01/06 09:54:17;;;;;;;4.65;0.00;;;;;;;5.75;100.00;100958.78;5046510;28;20382;-53
2023/01/06 09:56:45;;;;;;;3.15;0.10;;;;;;;5.95;100.00;100958.69;5030617;28;20030;-53
2023/01/06 09:59:21;;;;;;;8.57;0.35;;;;;;;6.14;100.00;100960.34;5038682;28;20030;-56
2023/01/06 10:01:48;;;;;;;1.35;0.05;;;;;;;6.33;100.00;100965.50;5023593;28;20183;-49
2023/01/06 10:04:25;;;;;;;1.73;0.77;;;;;;;6.47;100.00;100974.66;5024435;28;20026;-53
2023/01/06 10:07:08;;;;;;;1.98;0.17;;;;;;;6.45;100.00;100961.63;5030714;28;20059;-52
2023/01/06 10:09:47;;;;;;;1.30;0.00;;;;;;;6.52;100.00;100959.22;5038785;28;20042;-53
2023/01/06 10:12:16;;;;;;;0.55;0.13;;;;;;;6.60;100.00;100956.63;5034942;28;20029;-52
2023/01/06 10:14:50;;;;;;;6.63;0.20;;;;;;;6.66;100.00;100949.91;5024340;28;20032;-50
2023/01/06 10:17:36;;;;;;;0.10;0.00;;;;;;;6.66;100.00;100944.66;5028877;28;20034;-52
2023/01/06 10:20:24;;;;;;;3.55;0.10;;;;;;;6.62;100.00;100938.06;5026952;28;20479;-51
2023/01/06 10:22:55;;;;;;;2.45;0.10;;;;;;;6.70;100.00;100944.19;5030601;28;20351;-54
2023/01/06 10:25:26;;;;;;;1.40;0.25;;;;;;;6.72;100.00;100936.97;5027002;28;20117;-52
2023/01/06 10:28:01;;;;;;;2.00;0.10;;;;;;;6.65;100.00;100937.72;5029476;28;20056;-52
2023/01/06 10:30:38;;;;;;;6.65;0.25;;;;;;;6.67;100.00;100939.22;5023320;28;20034;-54
2023/01/06 10:33:04;;;;;;;3.88;0.65;;;;;;;6.69;100.00;100937.28;5027108;28;20048;-53
2023/01/06 10:35:31;;;;;;;2.63;0.40;;;;;;;6.73;100.00;100935.97;5036464;28;20029;-56
2023/01/06 10:37:58;;;;;;;0.88;0.17;;;;;;;6.74;100.00;100934.19;5024837;28;20116;-49
2023/01/06 10:40:26;;;;;;;3.35;0.43;;;;;;;6.70;100.00;100917.84;5023300;28;20041;-49
2023/01/06 10:43:05;;;;;;;0.52;0.10;;;;;;;6.72;100.00;100928.25;5029985;28;20155;-54
2023/01/06 10:45:38;;;;;;;2.95;0.52;;;;;;;6.70;100.00;100915.19;5023926;28;20026;-52
2023/01/06 10:48:05;;;;;;;1.33;0.30;;;;;;;6.68;100.00;100903.16;5020191;28;20030;-52
2023/01/06 10:50:33;;;;;;;0.28;0.15;;;;;;;6.69;100.00;100910.94;5032818;28;20029;-55
2023/01/06 10:52:58;;;;;;;3.33;0.65;;;;;;;6.74;100.00;100906.03;5018558;28;20042;-51
2023/01/06 10:55:46;;;;;;;4.47;0.10;;;;;;;6.83;100.00;100903.44;5028773;28;20040;-52
2023/01/06 10:58:16;;;;;;;5.10;0.17;;;;;;;6.93;100.00;100904.13;5025734;28;20033;-55
2023/01/06 11:01:09;;;;;;;4.13;1.25;;;;;;;7.03;100.00;100904.84;5025905;28;20026;-50
2023/01/06 11:03:35;;;;;;;0.88;0.17;;;;;;;7.08;100.00;100889.38;5025893;28;20561;-54
2023/01/06 11:06:05;;;;;;;0.47;0.00;;;;;;;7.19;100.00;100878.53;5031502;28;20025;-51
2023/01/06 11:08:32;;;;;;;7.38;1.10;;;;;;;7.03;100.00;100881.13;5019371;28;20033;-50
2023/01/06 11:10:57;;;;;;;2.22;0.10;;;;;;;6.94;100.00;100879.41;5033457;28;20025;-51
2023/01/06 11:13:35;;;;;;;3.78;0.13;;;;;;;6.93;100.00;100889.16;5031133;28;20067;-52
2023/01/06 11:16:16;;;;;;;0.73;0.00;;;;;;;6.96;100.00;100888.00;5022985;28;20471;-54
2023/01/06 11:18:41;;;;;;;1.65;0.00;;;;;;;7.04;100.00;100872.22;5033234;28;20669;-49
2023/01/06 11:21:15;;;;;;;0.95;0.17;;;;;;;7.17;100.00;100863.88;5027550;28;20238;-55
2023/01/06 11:23:42;;;;;;;3.50;1.10;;;;;;;7.31;100.00;100870.34;5028023;28;20083;-52
2023/01/06 11:26:10;;;;;;;1.48;0.00;;;;;;;7.49;100.00;100864.97;5025723;28;20344;-54
2023/01/06 11:28:36;;;;;;;1.13;0.20;;;;;;;7.73;100.00;100857.09;5027366;28;20033;-49
2023/01/06 11:31:06;;;;;;;0.63;0.00;;;;;;;7.96;100.00;100843.25;5025022;28;20036;-54
2023/01/06 11:33:35;;;;;;;4.88;0.28;;;;;;;8.08;100.00;100831.38;5022432;28;20124;-52